sensor_id;sensor_type;location;lat;lon;timestamp;temperature;humidity
20574;DHT22;10445;50.216;7.912;2023-11-19T00:00:20;8.20;99.90
20574;DHT22;10445;50.216;7.912;2023-11-19T00:02:47;8.20;99.90
20574;DHT22;10445;50.216;7.912;2023-11-19T00:05:17;8.20;99.90
20574;DHT22;10445;50.216;7.912;2023-11-19T00:07:45;8.30;99.90
20574;DHT22;10445;50.216;7.912;2023-11-19T00:10:15;8.30;99.90
20574;DHT22;10445;50.216;7.912;2023-11-19T00:12:47;8.30;99.90
20574;DHT22;10445;50.216;7.912;2023-11-19T00:15:16;8.20;99.90
20574;DHT22;10445;50.216;7.912;2023-11-19T00:17:47;8.30;99.90
20574;DHT22;10445;50.216;7.912;2023-11-19T00:20:18;8.40;99.90
20574;DHT22;10445;50.216;7.912;2023-11-19T00:22:48;8.40;99.90
20574;DHT22;10445;50.216;7.912;2023-11-19T00:25:20;8.40;99.90
20574;DHT22;10445;50.216;7.912;2023-11-19T00:27:49;8.30;99.90
20574;DHT22;10445;50.216;7.912;2023-11-19T00:30:21;8.30;99.90
20574;DHT22;10445;50.216;7.912;2023-11-19T00:32:49;8.30;99.90
20574;DHT22;10445;50.216;7.912;2023-11-19T00:35:19;8.40;99.90
20574;DHT22;10445;50.216;7.912;2023-11-19T00:37:47;8.50;99.90
20574;DHT22;10445;50.216;7.912;2023-11-19T00:40:16;8.50;99.90
20574;DHT22;10445;50.216;7.912;2023-11-19T00:42:45;8.60;99.90
20574;DHT22;10445;50.216;7.912;2023-11-19T00:45:15;8.60;99.90
20574;DHT22;10445;50.216;7.912;2023-11-19T00:47:43;8.70;99.90
20574;DHT22;10445;50.216;7.912;2023-11-19T00:50:11;8.70;99.90
20574;DHT22;10445;50.216;7.912;2023-11-19T00:52:41;8.80;99.90
20574;DHT22;10445;50.216;7.912;2023-11-19T00:55:10;8.80;99.90
20574;DHT22;10445;50.216;7.912;2023-11-19T00:57:38;8.80;99.90
20574;DHT22;10445;50.216;7.912;2023-11-19T01:00:08;8.80;99.90
20574;DHT22;10445;50.216;7.912;2023-11-19T01:02:46;8.80;99.90
20574;DHT22;10445;50.216;7.912;2023-11-19T01:05:18;8.80;99.90
20574;DHT22;10445;50.216;7.912;2023-11-19T01:07:50;8.80;99.90
20574;DHT22;10445;50.216;7.912;2023-11-19T01:10:22;8.90;99.90
20574;DHT22;10445;50.216;7.912;2023-11-19T01:12:50;8.90;99.90
20574;DHT22;10445;50.216;7.912;2023-11-19T01:15:19;8.90;99.90
20574;DHT22;10445;50.216;7.912;2023-11-19T01:17:47;8.90;99.90
20574;DHT22;10445;50.216;7.912;2023-11-19T01:20:18;8.90;99.90
20574;DHT22;10445;50.216;7.912;2023-11-19T01:22:48;8.90;99.90
20574;DHT22;10445;50.216;7.912;2023-11-19T01:25:17;8.90;99.90
20574;DHT22;10445;50.216;7.912;2023-11-19T01:27:46;8.90;99.90
20574;DHT22;10445;50.216;7.912;2023-11-19T01:30:15;8.90;99.90
20574;DHT22;10445;50.216;7.912;2023-11-19T01:32:43;8.90;99.90
20574;DHT22;10445;50.216;7.912;2023-11-19T01:35:11;8.90;99.90
20574;DHT22;10445;50.216;7.912;2023-11-19T01:37:40;8.90;99.90
20574;DHT22;10445;50.216;7.912;2023-11-19T01:40:09;8.90;99.90
20574;DHT22;10445;50.216;7.912;2023-11-19T01:42:40;8.90;99.90
20574;DHT22;10445;50.216;7.912;2023-11-19T01:45:10;8.90;99.90
20574;DHT22;10445;50.216;7.912;2023-11-19T01:47:47;8.90;99.90
20574;DHT22;10445;50.216;7.912;2023-11-19T01:50:15;9.00;99.90
20574;DHT22;10445;50.216;7.912;2023-11-19T01:52:44;9.00;99.90
20574;DHT22;10445;50.216;7.912;2023-11-19T01:55:12;9.00;99.90
20574;DHT22;10445;50.216;7.912;2023-11-19T01:57:42;9.00;99.90
20574;DHT22;10445;50.216;7.912;2023-11-19T02:00:12;9.00;99.90
20574;DHT22;10445;50.216;7.912;2023-11-19T02:02:42;9.00;99.90
20574;DHT22;10445;50.216;7.912;2023-11-19T02:05:12;9.00;99.90
20574;DHT22;10445;50.216;7.912;2023-11-19T02:07:41;9.00;99.90
20574;DHT22;10445;50.216;7.912;2023-11-19T02:10:08;9.00;99.90
20574;DHT22;10445;50.216;7.912;2023-11-19T02:12:43;9.10;99.90
20574;DHT22;10445;50.216;7.912;2023-11-19T02:15:11;9.10;99.90
20574;DHT22;10445;50.216;7.912;2023-11-19T02:17:40;9.10;99.90
20574;DHT22;10445;50.216;7.912;2023-11-19T02:20:09;9.10;99.90
20574;DHT22;10445;50.216;7.912;2023-11-19T02:22:39;9.20;99.90
20574;DHT22;10445;50.216;7.912;2023-11-19T02:25:11;9.10;99.90
20574;DHT22;10445;50.216;7.912;2023-11-19T02:27:52;9.20;99.90
20574;DHT22;10445;50.216;7.912;2023-11-19T02:30:23;9.20;99.90
20574;DHT22;10445;50.216;7.912;2023-11-19T02:32:54;9.20;99.90
20574;DHT22;10445;50.216;7.912;2023-11-19T02:35:24;9.30;99.90
20574;DHT22;10445;50.216;7.912;2023-11-19T02:37:54;9.20;99.90
20574;DHT22;10445;50.216;7.912;2023-11-19T02:40:22;9.20;99.90
20574;DHT22;10445;50.216;7.912;2023-11-19T02:42:52;9.30;99.90
20574;DHT22;10445;50.216;7.912;2023-11-19T02:45:22;9.20;99.90
20574;DHT22;10445;50.216;7.912;2023-11-19T02:47:50;9.20;99.90
20574;DHT22;10445;50.216;7.912;2023-11-19T02:50:19;9.30;99.90
20574;DHT22;10445;50.216;7.912;2023-11-19T02:52:53;9.30;99.90
20574;DHT22;10445;50.216;7.912;2023-11-19T02:55:24;9.30;99.90
20574;DHT22;10445;50.216;7.912;2023-11-19T02:57:56;9.30;99.90
20574;DHT22;10445;50.216;7.912;2023-11-19T03:00:26;9.30;99.90
20574;DHT22;10445;50.216;7.912;2023-11-19T03:03:03;9.30;99.90
20574;DHT22;10445;50.216;7.912;2023-11-19T03:05:45;9.40;99.90
20574;DHT22;10445;50.216;7.912;2023-11-19T03:08:14;9.30;99.90
20574;DHT22;10445;50.216;7.912;2023-11-19T03:10:45;9.30;99.90
20574;DHT22;10445;50.216;7.912;2023-11-19T03:13:15;9.30;99.90
20574;DHT22;10445;50.216;7.912;2023-11-19T03:15:45;9.30;99.90
20574;DHT22;10445;50.216;7.912;2023-11-19T03:18:14;9.30;99.90
20574;DHT22;10445;50.216;7.912;2023-11-19T03:20:42;9.40;99.90
20574;DHT22;10445;50.216;7.912;2023-11-19T03:23:10;9.40;99.90
20574;DHT22;10445;50.216;7.912;2023-11-19T03:25:39;9.30;99.90
20574;DHT22;10445;50.216;7.912;2023-11-19T03:28:07;9.30;99.90
20574;DHT22;10445;50.216;7.912;2023-11-19T03:30:38;9.40;99.90
20574;DHT22;10445;50.216;7.912;2023-11-19T03:33:06;9.40;99.90
20574;DHT22;10445;50.216;7.912;2023-11-19T03:35:34;9.40;99.90
20574;DHT22;10445;50.216;7.912;2023-11-19T03:38:03;9.40;99.90
20574;DHT22;10445;50.216;7.912;2023-11-19T03:40:31;9.40;99.90
20574;DHT22;10445;50.216;7.912;2023-11-19T03:42:59;9.50;99.90
20574;DHT22;10445;50.216;7.912;2023-11-19T03:45:28;9.50;99.90
20574;DHT22;10445;50.216;7.912;2023-11-19T03:47:57;9.40;99.90
20574;DHT22;10445;50.216;7.912;2023-11-19T03:50:26;9.40;99.90
20574;DHT22;10445;50.216;7.912;2023-11-19T03:52:54;9.40;99.90
20574;DHT22;10445;50.216;7.912;2023-11-19T03:55:22;9.40;99.90
20574;DHT22;10445;50.216;7.912;2023-11-19T03:57:51;9.40;99.90
20574;DHT22;10445;50.216;7.912;2023-11-19T04:00:20;9.50;99.90
20574;DHT22;10445;50.216;7.912;2023-11-19T04:02:48;9.40;99.90
20574;DHT22;10445;50.216;7.912;2023-11-19T04:05:18;9.40;99.90
20574;DHT22;10445;50.216;7.912;2023-11-19T04:07:46;9.40;99.90
20574;DHT22;10445;50.216;7.912;2023-11-19T04:10:15;9.40;99.90
20574;DHT22;10445;50.216;7.912;2023-11-19T04:12:45;9.50;99.90
20574;DHT22;10445;50.216;7.912;2023-11-19T04:15:14;9.50;99.90
20574;DHT22;10445;50.216;7.912;2023-11-19T04:17:43;9.50;99.90
20574;DHT22;10445;50.216;7.912;2023-11-19T04:20:12;9.50;99.90
20574;DHT22;10445;50.216;7.912;2023-11-19T04:22:43;9.60;99.90
20574;DHT22;10445;50.216;7.912;2023-11-19T04:25:11;9.60;99.90
20574;DHT22;10445;50.216;7.912;2023-11-19T04:27:41;9.60;99.90
20574;DHT22;10445;50.216;7.912;2023-11-19T04:30:10;9.70;99.90
20574;DHT22;10445;50.216;7.912;2023-11-19T04:32:38;9.60;99.90
20574;DHT22;10445;50.216;7.912;2023-11-19T04:35:08;9.70;99.90
20574;DHT22;10445;50.216;7.912;2023-11-19T04:37:36;9.70;99.90
20574;DHT22;10445;50.216;7.912;2023-11-19T04:40:08;9.70;99.90
20574;DHT22;10445;50.216;7.912;2023-11-19T04:42:37;9.80;99.90
20574;DHT22;10445;50.216;7.912;2023-11-19T04:45:08;9.70;99.90
20574;DHT22;10445;50.216;7.912;2023-11-19T04:47:37;9.70;99.90
20574;DHT22;10445;50.216;7.912;2023-11-19T04:50:06;9.70;99.90
20574;DHT22;10445;50.216;7.912;2023-11-19T04:52:38;9.70;99.90
20574;DHT22;10445;50.216;7.912;2023-11-19T04:55:10;9.80;99.90
20574;DHT22;10445;50.216;7.912;2023-11-19T04:57:41;9.80;99.90
20574;DHT22;10445;50.216;7.912;2023-11-19T05:00:11;9.90;99.90
20574;DHT22;10445;50.216;7.912;2023-11-19T05:02:41;9.90;99.90
20574;DHT22;10445;50.216;7.912;2023-11-19T05:05:10;10.00;99.90
20574;DHT22;10445;50.216;7.912;2023-11-19T05:07:38;10.00;99.90
20574;DHT22;10445;50.216;7.912;2023-11-19T05:10:07;10.00;99.90
20574;DHT22;10445;50.216;7.912;2023-11-19T05:12:37;10.10;99.90
20574;DHT22;10445;50.216;7.912;2023-11-19T05:15:06;10.10;99.90
20574;DHT22;10445;50.216;7.912;2023-11-19T05:17:35;10.10;99.90
20574;DHT22;10445;50.216;7.912;2023-11-19T05:20:05;10.20;99.90
20574;DHT22;10445;50.216;7.912;2023-11-19T05:22:40;10.20;99.90
20574;DHT22;10445;50.216;7.912;2023-11-19T05:25:09;10.20;99.90
20574;DHT22;10445;50.216;7.912;2023-11-19T05:27:39;10.20;99.90
20574;DHT22;10445;50.216;7.912;2023-11-19T05:30:08;10.10;99.90
20574;DHT22;10445;50.216;7.912;2023-11-19T05:32:38;10.10;99.90
20574;DHT22;10445;50.216;7.912;2023-11-19T05:35:07;10.10;99.90
20574;DHT22;10445;50.216;7.912;2023-11-19T05:37:36;10.20;99.90
20574;DHT22;10445;50.216;7.912;2023-11-19T05:40:06;10.10;99.90
20574;DHT22;10445;50.216;7.912;2023-11-19T05:42:43;10.20;99.90
20574;DHT22;10445;50.216;7.912;2023-11-19T05:45:12;10.20;99.90
20574;DHT22;10445;50.216;7.912;2023-11-19T05:47:41;10.20;99.90
20574;DHT22;10445;50.216;7.912;2023-11-19T05:50:10;10.20;99.90
20574;DHT22;10445;50.216;7.912;2023-11-19T05:52:38;10.20;99.90
20574;DHT22;10445;50.216;7.912;2023-11-19T05:55:07;10.10;99.90
20574;DHT22;10445;50.216;7.912;2023-11-19T05:57:38;10.10;99.90
20574;DHT22;10445;50.216;7.912;2023-11-19T06:00:12;10.00;99.90
20574;DHT22;10445;50.216;7.912;2023-11-19T06:02:42;10.00;99.90
20574;DHT22;10445;50.216;7.912;2023-11-19T06:05:10;10.00;99.90
20574;DHT22;10445;50.216;7.912;2023-11-19T06:07:39;10.10;99.90
20574;DHT22;10445;50.216;7.912;2023-11-19T06:10:09;10.10;99.90
20574;DHT22;10445;50.216;7.912;2023-11-19T06:12:39;10.10;99.90
20574;DHT22;10445;50.216;7.912;2023-11-19T06:15:10;10.20;99.90
20574;DHT22;10445;50.216;7.912;2023-11-19T06:17:39;10.20;99.90
20574;DHT22;10445;50.216;7.912;2023-11-19T06:20:08;10.10;99.90
20574;DHT22;10445;50.216;7.912;2023-11-19T06:22:39;10.20;99.90
20574;DHT22;10445;50.216;7.912;2023-11-19T06:25:11;10.10;99.90
20574;DHT22;10445;50.216;7.912;2023-11-19T06:27:42;10.10;99.90
20574;DHT22;10445;50.216;7.912;2023-11-19T06:30:12;10.10;99.90
20574;DHT22;10445;50.216;7.912;2023-11-19T06:32:41;10.10;99.90
20574;DHT22;10445;50.216;7.912;2023-11-19T06:35:09;10.10;99.90
20574;DHT22;10445;50.216;7.912;2023-11-19T06:37:39;10.00;99.90
20574;DHT22;10445;50.216;7.912;2023-11-19T06:40:08;10.00;99.90
20574;DHT22;10445;50.216;7.912;2023-11-19T06:42:37;10.00;99.90
20574;DHT22;10445;50.216;7.912;2023-11-19T06:45:06;10.00;99.90
20574;DHT22;10445;50.216;7.912;2023-11-19T06:47:36;9.90;99.90
20574;DHT22;10445;50.216;7.912;2023-11-19T06:50:06;9.90;99.90
20574;DHT22;10445;50.216;7.912;2023-11-19T06:52:34;9.90;99.90
20574;DHT22;10445;50.216;7.912;2023-11-19T06:55:05;9.90;99.90
20574;DHT22;10445;50.216;7.912;2023-11-19T06:57:35;9.90;99.90
20574;DHT22;10445;50.216;7.912;2023-11-19T07:00:04;9.90;99.90
20574;DHT22;10445;50.216;7.912;2023-11-19T07:02:33;9.90;99.90
20574;DHT22;10445;50.216;7.912;2023-11-19T07:05:04;9.80;99.90
20574;DHT22;10445;50.216;7.912;2023-11-19T07:07:32;9.80;99.90
20574;DHT22;10445;50.216;7.912;2023-11-19T07:10:00;9.80;99.90
20574;DHT22;10445;50.216;7.912;2023-11-19T07:12:29;9.80;99.90
20574;DHT22;10445;50.216;7.912;2023-11-19T07:14:56;9.90;99.90
20574;DHT22;10445;50.216;7.912;2023-11-19T07:17:24;9.90;99.90
20574;DHT22;10445;50.216;7.912;2023-11-19T07:19:54;10.00;99.90
20574;DHT22;10445;50.216;7.912;2023-11-19T07:22:27;10.10;99.90
20574;DHT22;10445;50.216;7.912;2023-11-19T07:24:57;10.10;99.90
20574;DHT22;10445;50.216;7.912;2023-11-19T07:27:25;10.10;99.90
20574;DHT22;10445;50.216;7.912;2023-11-19T07:29:54;10.20;99.90
20574;DHT22;10445;50.216;7.912;2023-11-19T07:32:23;10.20;99.90
20574;DHT22;10445;50.216;7.912;2023-11-19T07:34:51;10.20;99.90
20574;DHT22;10445;50.216;7.912;2023-11-19T07:37:19;10.20;99.90
20574;DHT22;10445;50.216;7.912;2023-11-19T07:39:49;10.30;99.90
20574;DHT22;10445;50.216;7.912;2023-11-19T07:42:17;10.20;99.90
20574;DHT22;10445;50.216;7.912;2023-11-19T07:44:46;10.20;99.90
20574;DHT22;10445;50.216;7.912;2023-11-19T07:47:14;10.20;99.90
20574;DHT22;10445;50.216;7.912;2023-11-19T07:49:42;10.30;99.90
20574;DHT22;10445;50.216;7.912;2023-11-19T07:52:11;10.20;99.90
20574;DHT22;10445;50.216;7.912;2023-11-19T07:54:43;10.30;99.90
20574;DHT22;10445;50.216;7.912;2023-11-19T07:57:12;10.30;99.90
20574;DHT22;10445;50.216;7.912;2023-11-19T07:59:41;10.30;99.90
20574;DHT22;10445;50.216;7.912;2023-11-19T08:02:09;10.30;99.90
20574;DHT22;10445;50.216;7.912;2023-11-19T08:04:37;10.30;99.90
20574;DHT22;10445;50.216;7.912;2023-11-19T08:07:12;10.30;99.90
20574;DHT22;10445;50.216;7.912;2023-11-19T08:09:40;10.30;99.90
20574;DHT22;10445;50.216;7.912;2023-11-19T08:12:09;10.30;99.90
20574;DHT22;10445;50.216;7.912;2023-11-19T08:14:38;10.40;99.90
20574;DHT22;10445;50.216;7.912;2023-11-19T08:17:07;10.40;99.90
20574;DHT22;10445;50.216;7.912;2023-11-19T08:19:35;10.40;99.90
20574;DHT22;10445;50.216;7.912;2023-11-19T08:22:03;10.50;99.90
20574;DHT22;10445;50.216;7.912;2023-11-19T08:24:32;10.50;99.90
20574;DHT22;10445;50.216;7.912;2023-11-19T08:27:00;10.50;99.90
20574;DHT22;10445;50.216;7.912;2023-11-19T08:29:29;10.60;99.90
20574;DHT22;10445;50.216;7.912;2023-11-19T08:32:00;10.50;99.90
20574;DHT22;10445;50.216;7.912;2023-11-19T08:34:29;10.30;99.90
20574;DHT22;10445;50.216;7.912;2023-11-19T08:36:57;10.30;99.90
20574;DHT22;10445;50.216;7.912;2023-11-19T08:39:26;10.20;99.90
20574;DHT22;10445;50.216;7.912;2023-11-19T08:41:54;10.10;99.90
20574;DHT22;10445;50.216;7.912;2023-11-19T08:44:23;10.10;99.90
20574;DHT22;10445;50.216;7.912;2023-11-19T08:46:52;10.20;99.90
20574;DHT22;10445;50.216;7.912;2023-11-19T08:49:22;10.80;99.90
20574;DHT22;10445;50.216;7.912;2023-11-19T08:51:50;11.60;91.40
20574;DHT22;10445;50.216;7.912;2023-11-19T08:54:19;12.30;86.20
20574;DHT22;10445;50.216;7.912;2023-11-19T08:56:49;12.70;69.50
20574;DHT22;10445;50.216;7.912;2023-11-19T08:59:18;12.70;63.70
20574;DHT22;10445;50.216;7.912;2023-11-19T09:01:47;12.80;66.50
20574;DHT22;10445;50.216;7.912;2023-11-19T09:04:15;12.70;58.10
20574;DHT22;10445;50.216;7.912;2023-11-19T09:06:45;12.70;55.40
20574;DHT22;10445;50.216;7.912;2023-11-19T09:09:13;12.60;57.60
20574;DHT22;10445;50.216;7.912;2023-11-19T09:11:41;12.40;56.20
20574;DHT22;10445;50.216;7.912;2023-11-19T09:14:10;12.20;53.90
20574;DHT22;10445;50.216;7.912;2023-11-19T09:16:38;11.90;61.10
20574;DHT22;10445;50.216;7.912;2023-11-19T09:19:07;11.60;60.50
20574;DHT22;10445;50.216;7.912;2023-11-19T09:21:35;11.30;65.30
20574;DHT22;10445;50.216;7.912;2023-11-19T09:24:07;11.20;69.90
20574;DHT22;10445;50.216;7.912;2023-11-19T09:26:35;11.10;70.00
20574;DHT22;10445;50.216;7.912;2023-11-19T09:29:06;11.20;70.60
20574;DHT22;10445;50.216;7.912;2023-11-19T09:31:35;11.40;66.90
20574;DHT22;10445;50.216;7.912;2023-11-19T09:34:03;11.40;65.90
20574;DHT22;10445;50.216;7.912;2023-11-19T09:36:32;11.50;64.80
20574;DHT22;10445;50.216;7.912;2023-11-19T09:39:00;11.60;63.20
20574;DHT22;10445;50.216;7.912;2023-11-19T09:41:31;11.60;62.40
20574;DHT22;10445;50.216;7.912;2023-11-19T09:44:01;11.60;57.50
20574;DHT22;10445;50.216;7.912;2023-11-19T09:46:30;11.50;62.80
20574;DHT22;10445;50.216;7.912;2023-11-19T09:48:59;11.60;63.70
20574;DHT22;10445;50.216;7.912;2023-11-19T09:51:28;11.60;54.30
20574;DHT22;10445;50.216;7.912;2023-11-19T09:53:56;11.70;55.50
20574;DHT22;10445;50.216;7.912;2023-11-19T09:56:25;11.70;53.40
20574;DHT22;10445;50.216;7.912;2023-11-19T09:58:56;11.80;53.80
20574;DHT22;10445;50.216;7.912;2023-11-19T10:01:24;11.60;50.80
20574;DHT22;10445;50.216;7.912;2023-11-19T10:03:55;11.70;58.50
20574;DHT22;10445;50.216;7.912;2023-11-19T10:06:25;11.80;57.40
20574;DHT22;10445;50.216;7.912;2023-11-19T10:08:54;11.90;53.20
20574;DHT22;10445;50.216;7.912;2023-11-19T10:11:23;11.90;47.30
20574;DHT22;10445;50.216;7.912;2023-11-19T10:13:53;12.00;54.00
20574;DHT22;10445;50.216;7.912;2023-11-19T10:16:28;12.00;44.50
20574;DHT22;10445;50.216;7.912;2023-11-19T10:18:58;12.10;45.10
20574;DHT22;10445;50.216;7.912;2023-11-19T10:21:26;12.10;47.20
20574;DHT22;10445;50.216;7.912;2023-11-19T10:23:55;12.20;49.40
20574;DHT22;10445;50.216;7.912;2023-11-19T10:26:27;12.00;45.40
20574;DHT22;10445;50.216;7.912;2023-11-19T10:28:56;12.00;49.40
20574;DHT22;10445;50.216;7.912;2023-11-19T10:31:26;12.00;48.50
20574;DHT22;10445;50.216;7.912;2023-11-19T10:33:54;12.10;48.50
20574;DHT22;10445;50.216;7.912;2023-11-19T10:36:37;12.20;48.80
20574;DHT22;10445;50.216;7.912;2023-11-19T10:39:07;12.40;48.70
20574;DHT22;10445;50.216;7.912;2023-11-19T10:41:37;12.50;44.90
20574;DHT22;10445;50.216;7.912;2023-11-19T10:44:05;12.40;40.70
20574;DHT22;10445;50.216;7.912;2023-11-19T10:46:39;12.40;44.80
20574;DHT22;10445;50.216;7.912;2023-11-19T10:49:08;12.20;44.10
20574;DHT22;10445;50.216;7.912;2023-11-19T10:51:41;12.10;50.90
20574;DHT22;10445;50.216;7.912;2023-11-19T10:54:15;12.00;48.90
20574;DHT22;10445;50.216;7.912;2023-11-19T10:56:45;12.00;51.60
20574;DHT22;10445;50.216;7.912;2023-11-19T10:59:18;12.00;56.80
20574;DHT22;10445;50.216;7.912;2023-11-19T11:01:53;12.00;55.00
20574;DHT22;10445;50.216;7.912;2023-11-19T11:04:24;12.20;55.40
20574;DHT22;10445;50.216;7.912;2023-11-19T11:06:54;12.20;51.70
20574;DHT22;10445;50.216;7.912;2023-11-19T11:09:23;12.10;48.70
20574;DHT22;10445;50.216;7.912;2023-11-19T11:11:51;12.00;46.50
20574;DHT22;10445;50.216;7.912;2023-11-19T11:14:21;11.90;49.10
20574;DHT22;10445;50.216;7.912;2023-11-19T11:16:51;11.80;52.20
20574;DHT22;10445;50.216;7.912;2023-11-19T11:19:21;11.80;48.70
20574;DHT22;10445;50.216;7.912;2023-11-19T11:21:51;11.80;52.80
20574;DHT22;10445;50.216;7.912;2023-11-19T11:24:32;11.80;50.60
20574;DHT22;10445;50.216;7.912;2023-11-19T11:27:33;11.90;49.50
20574;DHT22;10445;50.216;7.912;2023-11-19T11:30:13;11.90;41.60
20574;DHT22;10445;50.216;7.912;2023-11-19T11:32:54;12.00;44.70
20574;DHT22;10445;50.216;7.912;2023-11-19T11:35:30;12.20;44.10
20574;DHT22;10445;50.216;7.912;2023-11-19T11:38:04;12.30;35.00
20574;DHT22;10445;50.216;7.912;2023-11-19T11:40:34;12.30;32.60
20574;DHT22;10445;50.216;7.912;2023-11-19T11:43:03;12.30;31.30
20574;DHT22;10445;50.216;7.912;2023-11-19T11:45:36;12.50;32.20
20574;DHT22;10445;50.216;7.912;2023-11-19T11:48:15;12.80;25.60
20574;DHT22;10445;50.216;7.912;2023-11-19T11:50:56;13.10;22.60
20574;DHT22;10445;50.216;7.912;2023-11-19T11:53:25;13.40;18.00
20574;DHT22;10445;50.216;7.912;2023-11-19T11:55:58;13.40;17.00
20574;DHT22;10445;50.216;7.912;2023-11-19T11:58:31;13.30;17.80
20574;DHT22;10445;50.216;7.912;2023-11-19T12:01:04;13.00;21.40
20574;DHT22;10445;50.216;7.912;2023-11-19T12:03:37;12.60;19.70
20574;DHT22;10445;50.216;7.912;2023-11-19T12:06:07;12.40;25.20
20574;DHT22;10445;50.216;7.912;2023-11-19T12:08:35;12.20;24.50
20574;DHT22;10445;50.216;7.912;2023-11-19T12:11:06;12.20;28.00
20574;DHT22;10445;50.216;7.912;2023-11-19T12:13:47;12.20;26.50
20574;DHT22;10445;50.216;7.912;2023-11-19T12:16:16;12.20;27.20
20574;DHT22;10445;50.216;7.912;2023-11-19T12:18:45;12.20;28.60
20574;DHT22;10445;50.216;7.912;2023-11-19T12:21:27;12.10;26.30
20574;DHT22;10445;50.216;7.912;2023-11-19T12:23:58;12.10;30.40
20574;DHT22;10445;50.216;7.912;2023-11-19T12:26:33;12.10;33.70
20574;DHT22;10445;50.216;7.912;2023-11-19T12:29:01;12.20;34.30
20574;DHT22;10445;50.216;7.912;2023-11-19T12:31:35;12.30;35.20
20574;DHT22;10445;50.216;7.912;2023-11-19T12:34:09;12.60;33.60
20574;DHT22;10445;50.216;7.912;2023-11-19T12:36:41;13.20;32.80
20574;DHT22;10445;50.216;7.912;2023-11-19T12:39:10;13.20;26.10
20574;DHT22;10445;50.216;7.912;2023-11-19T12:41:51;12.80;26.50
20574;DHT22;10445;50.216;7.912;2023-11-19T12:44:20;12.60;32.40
20574;DHT22;10445;50.216;7.912;2023-11-19T12:47:04;12.40;29.30
20574;DHT22;10445;50.216;7.912;2023-11-19T12:49:35;12.20;35.00
20574;DHT22;10445;50.216;7.912;2023-11-19T12:52:12;12.10;36.70
20574;DHT22;10445;50.216;7.912;2023-11-19T12:54:40;12.00;35.10
20574;DHT22;10445;50.216;7.912;2023-11-19T12:57:09;12.10;35.00
20574;DHT22;10445;50.216;7.912;2023-11-19T12:59:38;12.10;32.50
20574;DHT22;10445;50.216;7.912;2023-11-19T13:02:07;11.90;36.00
20574;DHT22;10445;50.216;7.912;2023-11-19T13:04:36;11.90;32.60
20574;DHT22;10445;50.216;7.912;2023-11-19T13:07:05;12.60;23.50
20574;DHT22;10445;50.216;7.912;2023-11-19T13:09:33;13.30;17.20
20574;DHT22;10445;50.216;7.912;2023-11-19T13:12:12;13.20;13.80
20574;DHT22;10445;50.216;7.912;2023-11-19T13:14:42;12.70;18.70
20574;DHT22;10445;50.216;7.912;2023-11-19T13:17:16;12.20;18.80
20574;DHT22;10445;50.216;7.912;2023-11-19T13:19:47;11.80;21.90
20574;DHT22;10445;50.216;7.912;2023-11-19T13:22:15;11.50;25.90
20574;DHT22;10445;50.216;7.912;2023-11-19T13:24:43;11.40;27.30
20574;DHT22;10445;50.216;7.912;2023-11-19T13:27:13;11.40;30.50
20574;DHT22;10445;50.216;7.912;2023-11-19T13:29:41;11.40;32.00
20574;DHT22;10445;50.216;7.912;2023-11-19T13:32:09;11.40;33.40
20574;DHT22;10445;50.216;7.912;2023-11-19T13:34:38;11.40;31.20
20574;DHT22;10445;50.216;7.912;2023-11-19T13:37:07;11.40;31.70
20574;DHT22;10445;50.216;7.912;2023-11-19T13:39:36;11.50;33.20
20574;DHT22;10445;50.216;7.912;2023-11-19T13:42:09;11.60;33.20
20574;DHT22;10445;50.216;7.912;2023-11-19T13:44:40;11.60;33.40
20574;DHT22;10445;50.216;7.912;2023-11-19T13:47:09;11.60;33.70
20574;DHT22;10445;50.216;7.912;2023-11-19T13:49:38;11.70;32.80
20574;DHT22;10445;50.216;7.912;2023-11-19T13:52:07;11.70;31.40
20574;DHT22;10445;50.216;7.912;2023-11-19T13:54:36;11.70;30.00
20574;DHT22;10445;50.216;7.912;2023-11-19T13:57:05;11.60;30.80
20574;DHT22;10445;50.216;7.912;2023-11-19T13:59:34;11.60;25.20
20574;DHT22;10445;50.216;7.912;2023-11-19T14:02:07;11.60;25.20
20574;DHT22;10445;50.216;7.912;2023-11-19T14:04:35;11.50;27.40
20574;DHT22;10445;50.216;7.912;2023-11-19T14:07:04;11.50;25.10
20574;DHT22;10445;50.216;7.912;2023-11-19T14:09:34;11.60;25.60
20574;DHT22;10445;50.216;7.912;2023-11-19T14:12:02;11.60;24.20
20574;DHT22;10445;50.216;7.912;2023-11-19T14:14:31;11.50;25.70
20574;DHT22;10445;50.216;7.912;2023-11-19T14:16:59;11.30;28.10
20574;DHT22;10445;50.216;7.912;2023-11-19T14:19:30;11.20;28.80
20574;DHT22;10445;50.216;7.912;2023-11-19T14:21:58;11.10;29.90
20574;DHT22;10445;50.216;7.912;2023-11-19T14:24:27;11.10;29.10
20574;DHT22;10445;50.216;7.912;2023-11-19T14:26:57;11.10;30.60
20574;DHT22;10445;50.216;7.912;2023-11-19T14:29:26;11.00;31.60
20574;DHT22;10445;50.216;7.912;2023-11-19T14:31:55;11.00;33.60
20574;DHT22;10445;50.216;7.912;2023-11-19T14:34:23;10.90;34.50
20574;DHT22;10445;50.216;7.912;2023-11-19T14:36:53;10.90;31.20
20574;DHT22;10445;50.216;7.912;2023-11-19T14:39:21;10.90;32.70
20574;DHT22;10445;50.216;7.912;2023-11-19T14:41:50;10.80;32.30
20574;DHT22;10445;50.216;7.912;2023-11-19T14:44:20;10.80;34.20
20574;DHT22;10445;50.216;7.912;2023-11-19T14:46:49;10.80;35.00
20574;DHT22;10445;50.216;7.912;2023-11-19T14:49:18;10.80;34.30
20574;DHT22;10445;50.216;7.912;2023-11-19T14:51:46;10.90;33.40
20574;DHT22;10445;50.216;7.912;2023-11-19T14:54:15;10.90;34.70
20574;DHT22;10445;50.216;7.912;2023-11-19T14:56:43;10.90;34.10
20574;DHT22;10445;50.216;7.912;2023-11-19T14:59:12;10.80;36.10
20574;DHT22;10445;50.216;7.912;2023-11-19T15:01:41;10.70;36.90
20574;DHT22;10445;50.216;7.912;2023-11-19T15:04:10;10.70;35.70
20574;DHT22;10445;50.216;7.912;2023-11-19T15:06:38;10.70;36.40
20574;DHT22;10445;50.216;7.912;2023-11-19T15:09:07;10.70;36.50
20574;DHT22;10445;50.216;7.912;2023-11-19T15:11:36;10.60;38.10
20574;DHT22;10445;50.216;7.912;2023-11-19T15:14:05;10.50;40.40
20574;DHT22;10445;50.216;7.912;2023-11-19T15:16:33;10.40;41.90
20574;DHT22;10445;50.216;7.912;2023-11-19T15:19:03;10.30;42.00
20574;DHT22;10445;50.216;7.912;2023-11-19T15:21:32;10.30;43.50
20574;DHT22;10445;50.216;7.912;2023-11-19T15:24:00;10.20;43.70
20574;DHT22;10445;50.216;7.912;2023-11-19T15:26:31;10.20;45.00
20574;DHT22;10445;50.216;7.912;2023-11-19T15:28:59;10.10;46.80
20574;DHT22;10445;50.216;7.912;2023-11-19T15:31:27;10.10;46.90
20574;DHT22;10445;50.216;7.912;2023-11-19T15:33:56;10.10;48.40
20574;DHT22;10445;50.216;7.912;2023-11-19T15:36:25;10.10;50.10
20574;DHT22;10445;50.216;7.912;2023-11-19T15:38:54;10.10;50.60
20574;DHT22;10445;50.216;7.912;2023-11-19T15:41:22;10.00;52.70
20574;DHT22;10445;50.216;7.912;2023-11-19T15:43:50;9.90;54.40
20574;DHT22;10445;50.216;7.912;2023-11-19T15:46:19;9.90;52.50
20574;DHT22;10445;50.216;7.912;2023-11-19T15:48:47;10.00;51.20
20574;DHT22;10445;50.216;7.912;2023-11-19T15:51:15;10.00;50.00
20574;DHT22;10445;50.216;7.912;2023-11-19T15:53:46;10.00;51.30